Time;durP1;ratioP1;P1;durP2;ratioP2;P2;SDS_P1;SDS_P2;PMS_P1;PMS_P2;Temp;Humidity;BMP_temperature;BMP_pressure;BME280_temperature;BME280_humidity;BME280_pressure;Samples;Min_cycle;Max_cycle;Signal;HPM_P1;HPM_P2
2023/01/25 10:31:52;;;;;;;353.90;250.80;;;;;;;23.33;34.60;103293.19;5156329;27;20158;-40
2023/01/25 10:34:22;;;;;;;359.23;249.80;;;;;;;23.35;34.14;103289.81;5143539;27;20023;-40
2023/01/25 10:36:55;;;;;;;327.77;237.38;;;;;;;23.35;34.26;103294.13;5145699;27;20049;-40
2023/01/25 10:39:23;;;;;;;351.98;244.07;;;;;;;23.43;34.36;103286.66;5149978;27;20386;-41
2023/01/25 10:41:58;;;;;;;338.90;240.15;;;;;;;23.39;34.30;103279.50;5129657;27;20561;-40
2023/01/25 10:44:27;;;;;;;356.35;247.23;;;;;;;23.42;33.86;103279.63;5149391;27;20108;-41
2023/01/25 10:47:19;;;;;;;341.88;241.05;;;;;;;23.40;33.81;103274.31;5150720;27;20019;-42
2023/01/25 10:49:50;;;;;;;332.70;232.57;;;;;;;23.44;34.16;103272.75;5147541;27;20046;-42
2023/01/25 10:52:24;;;;;;;336.83;236.98;;;;;;;23.45;33.83;103275.47;5136181;27;20106;-40
2023/01/25 10:55:25;;;;;;;337.80;233.75;;;;;;;23.42;33.88;103266.53;5141071;27;20613;-41
2023/01/25 10:57:56;;;;;;;316.90;222.35;;;;;;;23.47;33.60;103259.81;5144505;27;20076;-41
2023/01/25 11:00:26;;;;;;;307.73;219.38;;;;;;;23.50;33.35;103255.63;5147312;27;20043;-40
2023/01/25 11:02:55;;;;;;;291.42;211.32;;;;;;;23.57;33.13;103250.72;5150423;27;20042;-41
2023/01/25 11:05:25;;;;;;;276.63;196.48;;;;;;;23.60;33.26;103243.91;5148704;27;20026;-41
2023/01/25 11:07:53;;;;;;;282.58;194.77;;;;;;;23.61;32.92;103242.19;5150303;27;20058;-41
2023/01/25 11:10:40;;;;;;;282.33;194.73;;;;;;;23.59;33.25;103238.59;5147738;27;20031;-41
2023/01/25 11:13:28;;;;;;;262.02;186.00;;;;;;;23.53;32.87;103228.72;5143804;27;20330;-40
2023/01/25 11:16:24;;;;;;;246.60;179.77;;;;;;;23.60;32.90;103227.28;5125453;27;20040;-41
2023/01/25 11:18:53;;;;;;;260.48;178.95;;;;;;;23.62;32.63;103231.78;5140175;27;20382;-40
2023/01/25 11:21:33;;;;;;;245.13;172.90;;;;;;;23.61;32.42;103218.63;5144127;27;20033;-41
2023/01/25 11:24:10;;;;;;;229.27;165.20;;;;;;;23.62;32.68;103215.16;5148987;27;20062;-41
2023/01/25 11:26:40;;;;;;;231.27;159.10;;;;;;;23.62;32.84;103204.69;5140395;27;20027;-41
2023/01/25 11:29:13;;;;;;;221.05;158.57;;;;;;;23.64;32.41;103196.06;5147817;27;20061;-40
2023/01/25 11:31:45;;;;;;;225.18;155.98;;;;;;;23.59;32.77;103205.41;5136191;27;20039;-41
2023/01/25 11:34:15;;;;;;;209.68;145.80;;;;;;;23.58;32.38;103198.38;5135498;27;20023;-40
2023/01/25 11:37:05;;;;;;;204.75;142.60;;;;;;;23.64;32.30;103203.06;5131295;27;20028;-40
2023/01/25 11:39:55;;;;;;;196.18;137.05;;;;;;;23.63;32.73;103193.38;5131902;27;20073;-40
2023/01/25 11:42:32;;;;;;;192.98;136.25;;;;;;;23.69;32.47;103196.28;5092072;27;20031;-40
2023/01/25 11:45:18;;;;;;;191.35;135.10;;;;;;;23.68;32.38;103181.38;5130556;27;20023;-40
2023/01/25 11:47:54;;;;;;;182.70;128.05;;;;;;;23.70;32.18;103173.63;5132264;27;20046;-40
2023/01/25 11:50:26;;;;;;;180.07;126.47;;;;;;;23.69;32.27;103166.59;5108337;27;20609;-40
2023/01/25 11:53:00;;;;;;;174.48;120.90;;;;;;;23.67;32.11;103161.25;5135794;27;20034;-41
2023/01/25 11:55:49;;;;;;;169.05;116.60;;;;;;;23.60;32.24;103160.06;5135873;27;20031;-41
2023/01/25 11:58:25;;;;;;;160.30;114.28;;;;;;;23.66;32.23;103160.38;5080772;27;20102;-40
2023/01/25 12:01:20;;;;;;;167.02;113.55;;;;;;;23.65;32.34;103153.31;5134318;27;20050;-40
2023/01/25 12:04:17;;;;;;;159.55;109.57;;;;;;;23.63;32.28;103148.84;5124705;27;20057;-42
2023/01/25 12:07:12;;;;;;;150.70;103.72;;;;;;;23.60;31.88;103143.44;5131659;27;20526;-40
2023/01/25 12:10:04;;;;;;;155.65;106.40;;;;;;;23.57;31.98;103138.97;5125728;27;20039;-40
2023/01/25 12:12:43;;;;;;;142.05;102.57;;;;;;;23.63;31.89;103148.84;5129867;27;20076;-41
2023/01/25 12:15:23;;;;;;;138.55;96.38;;;;;;;23.64;32.17;103135.81;5135848;27;20162;-42
2023/01/25 12:18:02;;;;;;;135.27;96.70;;;;;;;23.65;32.29;103126.25;5134841;27;20072;-40
2023/01/25 12:20:35;;;;;;;138.13;95.53;;;;;;;23.69;31.69;103129.91;5116970;27;20034;-40
2023/01/25 12:23:19;;;;;;;138.10;92.05;;;;;;;23.62;31.96;103111.25;5114743;28;20023;-42
2023/01/25 12:26:19;;;;;;;136.07;92.75;;;;;;;23.67;31.65;103119.31;5114052;28;20379;-40
2023/01/25 12:28:53;;;;;;;122.03;87.50;;;;;;;23.66;31.95;103109.69;5097535;28;20032;-43
2023/01/25 12:31:44;;;;;;;126.37;90.43;;;;;;;23.65;31.86;103103.53;5113967;28;20108;-42
2023/01/25 12:34:20;;;;;;;123.40;85.95;;;;;;;23.63;31.66;103107.81;5114912;28;20031;-44
2023/01/25 12:36:49;;;;;;;128.55;86.40;;;;;;;23.66;31.90;103104.44;5115384;28;20047;-41
2023/01/25 12:39:23;;;;;;;124.03;84.38;;;;;;;23.61;31.60;103104.22;5114931;28;20027;-41
2023/01/25 12:42:03;;;;;;;121.32;83.93;;;;;;;23.64;31.92;103101.75;5115047;28;20386;-40
2023/01/25 12:44:55;;;;;;;127.10;85.20;;;;;;;23.65;31.87;103100.03;5113157;28;20107;-41
2023/01/25 12:47:32;;;;;;;119.55;84.88;;;;;;;23.66;31.75;103102.72;5115245;28;20024;-41
2023/01/25 12:50:20;;;;;;;116.22;81.95;;;;;;;23.70;31.64;103092.38;5113834;28;20088;-41
2023/01/25 12:52:53;;;;;;;115.20;77.20;;;;;;;23.68;31.44;103087.06;5087062;28;20027;-40
2023/01/25 12:55:21;;;;;;;115.10;83.63;;;;;;;23.73;31.83;103085.56;5113599;28;20019;-40
2023/01/25 12:58:04;;;;;;;116.93;81.97;;;;;;;23.65;31.56;103069.47;5115102;28;20093;-41
2023/01/25 13:00:47;;;;;;;116.60;82.10;;;;;;;23.68;31.81;103063.47;5114742;28;20030;-41
2023/01/25 13:03:36;;;;;;;120.80;76.07;;;;;;;23.66;31.74;103062.53;5114860;28;20077;-41
2023/01/25 13:06:24;;;;;;;108.57;75.72;;;;;;;23.68;31.51;103058.22;5105537;28;20074;-41
2023/01/25 13:09:00;;;;;;;110.22;76.75;;;;;;;23.72;31.52;103047.06;5103847;28;20122;-40
2023/01/25 13:11:40;;;;;;;109.78;74.28;;;;;;;23.71;31.58;103047.91;5113002;28;20418;-40
2023/01/25 13:14:17;;;;;;;108.20;72.72;;;;;;;23.73;31.53;103051.50;5112990;28;20035;-43
2023/01/25 13:16:50;;;;;;;118.38;75.15;;;;;;;23.69;31.60;103043.44;5114431;28;20598;-40
2023/01/25 13:19:29;;;;;;;102.15;73.43;;;;;;;23.69;31.74;103039.06;5113051;28;20095;-41
2023/01/25 13:21:59;;;;;;;103.55;72.32;;;;;;;23.69;31.31;103043.44;5114212;28;20538;-41
2023/01/25 13:24:29;;;;;;;106.25;73.43;;;;;;;23.76;31.34;103045.50;5113277;28;20076;-41
2023/01/25 13:27:00;;;;;;;102.32;70.10;;;;;;;23.75;31.48;103043.69;5113529;28;20035;-41
2023/01/25 13:29:38;;;;;;;107.05;73.25;;;;;;;23.74;31.41;103052.41;5112456;28;20180;-41
2023/01/25 13:32:13;;;;;;;97.20;67.53;;;;;;;23.69;31.64;103039.06;5114144;28;20123;-40
2023/01/25 13:34:42;;;;;;;99.22;64.45;;;;;;;23.70;31.46;103046.09;5114259;28;20478;-40
2023/01/25 13:37:20;;;;;;;95.72;69.28;;;;;;;23.69;31.33;103035.56;5114312;28;20057;-42
2023/01/25 13:39:58;;;;;;;92.25;63.13;;;;;;;23.70;31.42;103030.38;5113543;28;20028;-40
2023/01/25 13:42:35;;;;;;;89.93;60.58;;;;;;;23.67;31.21;103036.38;5112807;28;20245;-41
2023/01/25 13:45:13;;;;;;;90.60;61.38;;;;;;;23.70;30.73;103029.50;5117088;27;20043;-40
2023/01/25 13:47:43;;;;;;;88.43;60.65;;;;;;;23.77;31.18;103028.94;5131071;27;20030;-40
2023/01/25 13:50:31;;;;;;;86.47;59.08;;;;;;;23.80;31.17;103021.22;5133167;27;20023;-42
2023/01/25 13:53:02;;;;;;;94.05;62.13;;;;;;;23.83;30.92;103011.78;5132862;27;20516;-40
2023/01/25 13:55:40;;;;;;;91.32;59.33;;;;;;;23.86;31.03;103004.88;5133166;27;20042;-39
2023/01/25 13:58:18;;;;;;;91.03;61.03;;;;;;;23.83;31.02;102997.78;5133069;27;20031;-40
2023/01/25 14:01:06;;;;;;;85.75;58.65;;;;;;;23.83;31.11;102990.81;5132833;27;20027;-40
2023/01/25 14:03:39;;;;;;;85.63;59.65;;;;;;;23.83;31.07;102976.81;5132581;27;20111;-41
2023/01/25 14:06:17;;;;;;;82.93;59.08;;;;;;;23.83;31.03;102980.31;5115850;27;20031;-40
2023/01/25 14:08:46;;;;;;;91.50;61.33;;;;;;;23.88;30.89;102983.19;5134393;27;20044;-43
2023/01/25 14:11:21;;;;;;;91.88;61.33;;;;;;;23.79;30.89;102977.50;5132526;27;20037;-41
2023/01/25 14:14:17;;;;;;;87.25;60.35;;;;;;;23.81;30.89;102991.56;5133021;27;20051;-41
2023/01/25 14:17:00;;;;;;;87.93;60.03;;;;;;;23.83;30.81;103003.91;5129398;27;20371;-40
2023/01/25 14:19:30;;;;;;;86.25;60.53;;;;;;;23.89;31.13;103007.66;5117533;28;20023;-41
2023/01/25 14:22:27;;;;;;;84.93;57.05;;;;;;;23.83;31.35;103009.16;5134028;27;20026;-40
2023/01/25 14:25:15;;;;;;;80.93;57.17;;;;;;;23.86;31.17;103002.25;5130799;27;20038;-40
2023/01/25 14:27:47;;;;;;;87.53;60.50;;;;;;;23.85;31.00;103004.00;5123472;28;20034;-41
2023/01/25 14:30:20;;;;;;;86.00;59.85;;;;;;;23.85;30.80;103005.69;5132681;28;20063;-40
2023/01/25 14:32:52;;;;;;;88.13;60.35;;;;;;;23.83;30.92;103003.91;5132795;28;20020;-40
2023/01/25 14:35:40;;;;;;;85.47;59.38;;;;;;;23.86;31.00;102997.00;5132289;28;20466;-42
2023/01/25 14:38:21;;;;;;;88.50;59.75;;;;;;;23.85;30.79;103003.09;5133548;27;20052;-41
2023/01/25 14:40:52;;;;;;;93.90;62.38;;;;;;;23.80;31.08;103010.75;5116006;28;20030;-41
2023/01/25 14:43:19;;;;;;;85.03;60.35;;;;;;;23.86;31.27;103012.75;5133869;27;20076;-40
2023/01/25 14:45:48;;;;;;;87.25;60.30;;;;;;;23.83;30.87;103017.00;5131697;28;20175;-41
2023/01/25 14:48:40;;;;;;;81.82;57.58;;;;;;;23.81;30.89;103020.41;5132316;28;20026;-42
2023/01/25 14:51:28;;;;;;;91.32;57.90;;;;;;;23.83;31.09;103010.91;5127957;27;20031;-40
2023/01/25 14:54:01;;;;;;;93.05;59.83;;;;;;;23.85;30.75;103008.31;5133446;27;20027;-41
2023/01/25 14:56:42;;;;;;;89.35;57.63;;;;;;;23.81;31.10;103015.16;5132376;28;20079;-40
2023/01/25 14:59:30;;;;;;;81.32;57.70;;;;;;;23.82;30.90;103010.00;5133059;27;20031;-40
2023/01/25 15:02:02;;;;;;;85.55;58.45;;;;;;;23.86;30.75;103010.13;5127918;28;20122;-42
2023/01/25 15:04:31;;;;;;;85.15;57.90;;;;;;;23.93;30.94;103006.97;5132086;28;20445;-41
2023/01/25 15:06:59;;;;;;;86.85;58.92;;;;;;;23.88;30.85;102995.38;5134927;27;20030;-40
2023/01/25 15:09:36;;;;;;;82.03;57.30;;;;;;;23.86;30.86;103002.25;5137238;27;20110;-41
2023/01/25 15:12:27;;;;;;;83.93;56.60;;;;;;;23.85;30.70;102985.66;5137611;27;20062;-43
2023/01/25 15:14:57;;;;;;;88.32;58.28;;;;;;;23.88;30.83;102985.78;5127943;27;20039;-41
2023/01/25 15:17:46;;;;;;;88.97;59.20;;;;;;;23.82;30.91;102993.38;5137467;27;20115;-41
2023/01/25 15:20:34;;;;;;;90.88;57.92;;;;;;;23.80;30.88;103006.41;5137325;27;20038;-40
2023/01/25 15:23:23;;;;;;;87.65;56.33;;;;;;;23.82;30.83;103022.19;5131168;27;20032;-41
2023/01/25 15:25:54;;;;;;;84.57;56.25;;;;;;;23.84;30.80;103028.41;5136773;27;20027;-41
2023/01/25 15:28:25;;;;;;;90.40;61.35;;;;;;;23.85;31.14;103029.28;5136823;27;20030;-41
2023/01/25 15:30:53;;;;;;;97.18;63.13;;;;;;;23.86;30.97;103045.13;5136993;27;20467;-40
2023/01/25 15:33:24;;;;;;;110.07;65.22;;;;;;;23.87;31.37;103053.84;5135599;27;20027;-41
2023/01/25 15:35:53;;;;;;;111.35;65.53;;;;;;;23.86;31.23;103054.69;5136864;27;20030;-41
2023/01/25 15:38:23;;;;;;;110.93;66.82;;;;;;;23.85;31.22;103047.66;5135090;27;20061;-43
2023/01/25 15:40:52;;;;;;;108.18;67.63;;;;;;;23.87;31.11;103044.28;5118337;27;20029;-41
2023/01/25 15:43:20;;;;;;;118.60;70.82;;;;;;;23.85;31.00;103052.88;5137019;27;20023;-40
2023/01/25 15:45:50;;;;;;;119.88;69.82;;;;;;;23.83;30.98;103047.59;5135266;27;20110;-41
2023/01/25 15:48:23;;;;;;;118.22;68.55;;;;;;;23.86;31.31;103038.97;5136611;27;20383;-41
2023/01/25 15:50:54;;;;;;;113.55;66.53;;;;;;;23.83;30.87;103043.22;5135369;27;20023;-40
2023/01/25 15:53:22;;;;;;;119.05;68.38;;;;;;;23.78;30.99;103036.91;5135295;27;20034;-42
2023/01/25 15:55:54;;;;;;;118.80;69.00;;;;;;;23.83;30.93;103043.22;5132991;27;20456;-41
2023/01/25 15:58:27;;;;;;;111.95;64.10;;;;;;;23.83;31.08;103044.97;5119594;27;20054;-41
2023/01/25 16:00:55;;;;;;;113.10;66.20;;;;;;;23.82;30.96;103041.47;5136643;27;20039;-41
2023/01/25 16:03:24;;;;;;;106.65;64.85;;;;;;;23.80;30.88;103032.63;5136783;27;20031;-40
2023/01/25 16:06:15;;;;;;;111.68;64.85;;;;;;;23.78;31.24;103036.91;5136163;27;20474;-41
2023/01/25 16:08:43;;;;;;;110.88;62.22;;;;;;;23.79;31.29;103024.66;5129341;27;20066;-41
2023/01/25 16:11:12;;;;;;;102.35;61.65;;;;;;;23.90;30.94;103025.16;5135978;27;20031;-41
2023/01/25 16:13:40;;;;;;;105.65;63.67;;;;;;;23.85;30.84;103017.09;5136183;27;20023;-43
2023/01/25 16:16:25;;;;;;;100.00;62.80;;;;;;;23.81;31.13;103015.16;5136151;27;20023;-41
2023/01/25 16:18:54;;;;;;;109.72;65.25;;;;;;;23.85;30.93;103005.69;5134726;27;20064;-40
2023/01/25 16:21:23;;;;;;;100.00;63.15;;;;;;;23.83;31.14;102990.81;5134971;27;20066;-42
2023/01/25 16:23:52;;;;;;;97.85;61.63;;;;;;;23.87;30.97;102989.25;5136051;27;20051;-42
2023/01/25 16:26:24;;;;;;;96.65;60.33;;;;;;;23.82;31.24;102981.19;5135941;27;20028;-42
2023/01/25 16:28:53;;;;;;;103.38;62.75;;;;;;;23.82;31.11;102982.88;5136396;27;20023;-40
2023/01/25 16:31:22;;;;;;;94.97;59.53;;;;;;;23.81;31.10;102975.84;5117068;27;20123;-42
2023/01/25 16:33:51;;;;;;;94.03;60.83;;;;;;;23.81;31.02;102958.41;5135992;27;20478;-40
2023/01/25 16:36:22;;;;;;;87.18;56.85;;;;;;;23.79;31.03;102957.44;5134694;27;20133;-40
2023/01/25 16:38:51;;;;;;;94.63;57.38;;;;;;;23.81;31.19;102955.78;5135330;27;20023;-41
2023/01/25 16:41:20;;;;;;;92.68;59.00;;;;;;;23.81;30.91;102945.31;5135393;27;20027;-41
2023/01/25 16:43:50;;;;;;;92.55;59.60;;;;;;;23.82;30.95;102935.72;5125621;27;20027;-40
2023/01/25 16:46:21;;;;;;;96.43;59.60;;;;;;;23.78;31.02;102926.81;5121886;27;20114;-41
2023/01/25 16:48:51;;;;;;;91.25;57.90;;;;;;;23.77;31.32;102930.28;5135306;27;20029;-44
2023/01/25 16:51:25;;;;;;;91.43;57.15;;;;;;;23.82;30.90;102935.72;5133832;27;20029;-46
2023/01/25 16:53:57;;;;;;;91.10;58.47;;;;;;;23.84;31.24;102939.28;5135588;27;20098;-42
2023/01/25 16:56:31;;;;;;;90.13;57.42;;;;;;;23.85;30.90;102945.41;5135780;27;20031;-42
2023/01/25 16:59:03;;;;;;;85.00;56.40;;;;;;;23.81;30.97;102949.63;5135464;27;20447;-42
2023/01/25 17:01:32;;;;;;;92.00;59.20;;;;;;;23.81;30.95;102945.31;5135362;27;20039;-44
2023/01/25 17:04:01;;;;;;;86.05;55.65;;;;;;;23.78;31.07;102945.16;5134000;27;20030;-41
2023/01/25 17:06:31;;;;;;;89.72;56.70;;;;;;;23.81;31.15;102941.78;5133749;27;20027;-45
2023/01/25 17:09:02;;;;;;;80.30;52.17;;;;;;;23.80;30.86;102947.84;5134809;27;20027;-42
2023/01/25 17:11:31;;;;;;;85.65;55.50;;;;;;;23.82;31.07;102946.19;5135418;27;20019;-42
2023/01/25 17:14:01;;;;;;;82.88;54.28;;;;;;;23.83;30.79;102950.59;5135313;27;20015;-44
2023/01/25 17:16:30;;;;;;;80.63;54.80;;;;;;;23.86;30.74;102947.22;5135006;27;20477;-43
2023/01/25 17:19:01;;;;;;;77.57;53.88;;;;;;;23.78;30.76;102939.00;5134877;27;20102;-41
2023/01/25 17:21:30;;;;;;;82.32;54.00;;;;;;;23.80;31.08;102954.00;5135061;27;20103;-45
2023/01/25 17:24:00;;;;;;;84.10;54.03;;;;;;;23.81;31.20;102947.03;5133657;27;20055;-41
2023/01/25 17:26:29;;;;;;;78.70;52.05;;;;;;;23.82;31.22;102952.34;5133562;27;20031;-43
2023/01/25 17:29:01;;;;;;;84.57;55.45;;;;;;;23.81;31.17;102952.25;5134449;27;20027;-42
2023/01/25 17:31:32;;;;;;;81.70;52.78;;;;;;;23.82;31.14;102948.81;5134022;27;20039;-42
2023/01/25 17:34:03;;;;;;;80.97;53.58;;;;;;;23.77;31.00;102946.00;5129472;27;20114;-47
2023/01/25 17:36:31;;;;;;;79.32;50.88;;;;;;;23.93;31.08;102949.31;5129609;27;20507;-44
2023/01/25 17:39:05;;;;;;;85.75;54.78;;;;;;;23.89;30.81;102937.78;5121769;27;20054;-42
2023/01/25 17:41:33;;;;;;;86.97;55.85;;;;;;;23.90;30.75;102943.91;5132962;27;20515;-42
2023/01/25 17:44:02;;;;;;;84.72;56.03;;;;;;;23.89;30.99;102939.50;5127802;27;20402;-42
2023/01/25 17:46:36;;;;;;;81.38;54.22;;;;;;;23.91;31.15;102950.94;5133248;27;20032;-46
2023/01/25 17:49:06;;;;;;;74.97;49.53;;;;;;;23.97;30.66;102965.25;5126542;27;20024;-44
2023/01/25 17:51:35;;;;;;;83.72;53.95;;;;;;;23.99;30.91;102967.06;5127406;27;20080;-41
2023/01/25 17:54:04;;;;;;;77.75;52.75;;;;;;;23.99;30.78;102965.34;5122714;27;20078;-41
2023/01/25 17:56:33;;;;;;;82.35;53.72;;;;;;;23.97;30.66;102975.75;5133235;27;20019;-42
2023/01/25 17:59:03;;;;;;;76.78;52.10;;;;;;;24.00;30.48;102981.97;5132506;27;20023;-40
2023/01/25 18:01:31;;;;;;;82.65;52.15;;;;;;;23.99;30.50;102981.06;5127909;27;20019;-43
2023/01/25 18:04:00;;;;;;;79.68;50.50;;;;;;;24.01;30.55;102974.16;5132545;27;20023;-41
2023/01/25 18:06:30;;;;;;;80.47;51.85;;;;;;;24.06;30.70;102983.13;5133064;27;20023;-41
2023/01/25 18:09:01;;;;;;;76.97;52.30;;;;;;;24.05;31.08;102980.44;5131875;27;20034;-40
2023/01/25 18:11:32;;;;;;;78.18;51.53;;;;;;;24.07;30.60;102971.81;5132065;27;20027;-40
2023/01/25 18:14:03;;;;;;;82.53;52.15;;;;;;;24.06;31.06;102966.50;5131536;27;20031;-42
2023/01/25 18:16:33;;;;;;;91.05;53.38;;;;;;;24.01;30.87;102962.78;5133018;27;20034;-41
2023/01/25 18:19:01;;;;;;;82.97;53.03;;;;;;;24.11;30.88;102965.88;5133058;27;20019;-40
2023/01/25 18:21:32;;;;;;;83.03;53.65;;;;;;;24.12;31.24;102962.44;5127743;28;20026;-41
2023/01/25 18:24:03;;;;;;;92.68;54.88;;;;;;;24.15;31.04;102958.16;5130066;28;20148;-41
2023/01/25 18:26:34;;;;;;;87.88;54.63;;;;;;;24.16;31.40;102955.59;5130743;28;20023;-40
2023/01/25 18:29:07;;;;;;;86.57;55.13;;;;;;;24.17;31.36;102961.72;5129877;28;20019;-40
2023/01/25 18:31:35;;;;;;;87.28;56.70;;;;;;;24.20;31.55;102956.59;5131394;28;20039;-41
2023/01/25 18:34:03;;;;;;;87.57;55.78;;;;;;;24.22;31.65;102952.34;5131797;27;20027;-42
2023/01/25 18:36:32;;;;;;;95.55;58.00;;;;;;;24.21;31.48;102947.91;5132889;27;20023;-40
2023/01/25 18:39:00;;;;;;;88.85;57.17;;;;;;;24.29;31.46;102936.03;5132133;27;20102;-41
2023/01/25 18:41:29;;;;;;;90.70;58.28;;;;;;;24.31;31.50;102938.72;5128864;27;20123;-42
2023/01/25 18:43:57;;;;;;;88.35;56.90;;;;;;;24.28;31.66;102942.13;5135369;27;20034;-41
2023/01/25 18:46:26;;;;;;;93.47;59.33;;;;;;;24.26;31.42;102935.91;5136617;27;20035;-40
2023/01/25 18:48:55;;;;;;;87.03;58.35;;;;;;;24.25;31.41;102932.38;5137027;27;20023;-41
2023/01/25 18:51:25;;;;;;;92.60;59.60;;;;;;;24.24;31.37;102934.94;5131708;27;20034;-42
2023/01/25 18:53:54;;;;;;;90.38;57.45;;;;;;;24.30;31.48;102929.06;5132731;27;20049;-41
2023/01/25 18:56:22;;;;;;;86.10;58.95;;;;;;;24.28;31.71;102929.88;5136696;27;20027;-41
2023/01/25 18:58:51;;;;;;;99.05;65.10;;;;;;;24.29;31.90;102917.69;5113938;27;20031;-41
2023/01/25 19:01:21;;;;;;;87.95;57.42;;;;;;;24.28;32.03;102901.03;5136354;27;20547;-41
2023/01/25 19:03:49;;;;;;;93.05;62.15;;;;;;;24.29;32.11;102907.19;5136056;27;20123;-44
2023/01/25 19:06:19;;;;;;;90.88;62.08;;;;;;;24.34;31.98;102910.00;5115077;27;20121;-41
2023/01/25 19:08:52;;;;;;;83.35;59.75;;;;;;;24.35;31.65;102912.69;5134425;27;20384;-41
2023/01/25 19:11:22;;;;;;;88.82;60.63;;;;;;;24.34;31.60;102912.63;5136439;27;20091;-41
2023/01/25 19:13:51;;;;;;;90.32;58.42;;;;;;;24.37;31.50;102907.53;5130176;27;20031;-40
2023/01/25 19:16:23;;;;;;;95.40;60.25;;;;;;;24.36;31.46;102903.97;5136387;27;20427;-40
2023/01/25 19:18:52;;;;;;;84.53;57.17;;;;;;;24.35;31.46;102891.69;5136760;27;20030;-40
2023/01/25 19:21:24;;;;;;;92.53;58.05;;;;;;;24.39;31.52;102896.25;5135315;27;20027;-42
2023/01/25 19:23:54;;;;;;;94.72;61.05;;;;;;;24.41;31.33;102891.06;5135703;27;20027;-42
2023/01/25 19:26:23;;;;;;;88.45;59.30;;;;;;;24.40;31.33;102900.66;5134596;27;20109;-40
2023/01/25 19:28:53;;;;;;;94.47;61.00;;;;;;;24.42;31.52;102904.25;5130934;27;20023;-41
2023/01/25 19:31:23;;;;;;;90.78;59.10;;;;;;;24.39;31.18;102898.00;5135566;27;20043;-41
2023/01/25 19:33:57;;;;;;;88.85;56.33;;;;;;;24.43;31.23;102906.03;5135646;27;20534;-40
2023/01/25 19:36:25;;;;;;;87.50;58.20;;;;;;;24.43;31.23;102899.88;5134785;27;20027;-41
2023/01/25 19:38:55;;;;;;;90.18;59.92;;;;;;;24.42;31.34;102892.84;5136274;27;20023;-41
2023/01/25 19:41:26;;;;;;;88.00;56.03;;;;;;;24.41;31.47;102886.72;5136852;27;20035;-43
2023/01/25 19:43:55;;;;;;;88.10;57.85;;;;;;;24.46;31.25;102883.41;5118457;27;20452;-41
2023/01/25 19:46:26;;;;;;;85.65;57.05;;;;;;;24.42;31.15;102892.84;5116269;28;20028;-41
2023/01/25 19:48:55;;;;;;;86.72;59.00;;;;;;;24.41;31.18;102880.56;5115667;28;20058;-41
2023/01/25 19:51:26;;;;;;;88.60;57.15;;;;;;;24.42;30.84;102870.16;5116213;28;20027;-41
2023/01/25 19:54:01;;;;;;;86.63;55.42;;;;;;;24.46;31.27;102883.41;5115196;28;20077;-41
2023/01/25 19:56:34;;;;;;;83.82;56.22;;;;;;;24.47;31.16;102875.56;5114816;28;20076;-40
2023/01/25 19:59:04;;;;;;;84.32;57.30;;;;;;;24.47;30.92;102874.69;5115952;28;20026;-40
2023/01/25 20:01:34;;;;;;;89.70;58.08;;;;;;;24.47;30.84;102870.31;5115585;28;20020;-41
2023/01/25 20:04:04;;;;;;;84.43;56.15;;;;;;;24.47;30.79;102861.56;5114422;28;20391;-41
2023/01/25 20:06:33;;;;;;;81.25;55.30;;;;;;;24.48;31.14;102858.13;5115568;28;20052;-41
2023/01/25 20:09:02;;;;;;;92.03;58.20;;;;;;;24.47;31.11;102854.59;5114679;28;20054;-42
2023/01/25 20:11:32;;;;;;;91.18;59.72;;;;;;;24.47;31.06;102856.34;5114462;28;20055;-41
2023/01/25 20:14:03;;;;;;;92.88;58.13;;;;;;;24.45;31.20;102852.75;5115812;28;20027;-41
2023/01/25 20:16:33;;;;;;;91.55;57.00;;;;;;;24.40;30.91;102856.06;5115823;28;20023;-40
2023/01/25 20:19:01;;;;;;;85.57;56.92;;;;;;;24.41;30.92;102852.63;5115816;28;20092;-41
2023/01/25 20:21:32;;;;;;;81.97;53.97;;;;;;;24.40;30.78;102837.72;5115459;28;20122;-41
2023/01/25 20:24:07;;;;;;;89.35;59.45;;;;;;;24.40;31.01;102837.72;5114134;28;20062;-40
2023/01/25 20:26:38;;;;;;;91.13;60.22;;;;;;;24.41;30.99;102843.84;5115956;28;20099;-40
2023/01/25 20:29:07;;;;;;;87.05;56.95;;;;;;;24.38;30.77;102834.13;5115316;28;20149;-43
2023/01/25 20:31:38;;;;;;;81.93;53.25;;;;;;;24.39;30.76;102837.66;5115188;28;20430;-40
2023/01/25 20:34:10;;;;;;;92.60;57.72;;;;;;;24.38;31.02;102834.13;5115576;28;20023;-40
2023/01/25 20:36:38;;;;;;;79.63;53.75;;;;;;;24.41;30.94;102829.00;5115369;28;20080;-40
2023/01/25 20:39:07;;;;;;;79.72;52.95;;;;;;;24.38;30.72;102828.00;5114299;28;20507;-42
2023/01/25 20:41:36;;;;;;;85.68;55.35;;;;;;;24.35;30.91;102830.47;5115029;27;20073;-42
2023/01/25 20:44:07;;;;;;;82.95;54.38;;;;;;;24.35;31.01;102831.38;5115189;28;20176;-41
2023/01/25 20:46:37;;;;;;;80.78;53.58;;;;;;;24.37;30.81;102821.84;5114392;28;20024;-41
2023/01/25 20:49:08;;;;;;;79.68;52.28;;;;;;;24.40;30.87;102826.34;5114182;28;20037;-40
2023/01/25 20:51:36;;;;;;;81.95;52.20;;;;;;;24.37;30.69;102821.84;5115231;28;20023;-40
2023/01/25 20:54:05;;;;;;;85.57;55.72;;;;;;;24.39;30.69;102824.53;5113676;28;20016;-41
2023/01/25 20:56:34;;;;;;;81.88;55.30;;;;;;;24.40;31.04;102829.84;5115196;28;20051;-41
2023/01/25 20:59:03;;;;;;;84.75;57.40;;;;;;;24.38;31.00;102825.38;5113865;28;20416;-41
